See Champion — 9LU2454 — position and weather

sailwx.info

Track history (hours):
 
Tides and Currents Weather Stations Pressure Air Temp Water Temp Dewpoint Dewpoint Depression Visibility Wind Speed Wind Dir Waves Ship Positions

See Champion

Last reported at 2018-Oct-23 10:07 UTC. Time now 2019-Jan-19 07:58 UTC.
Position N 31°44' E 031°13'.
Warning: this ship's position is months out of date.

Length 59 m.

Type: Tug. MMSI: 667001651.

Date/timePositionNaut miles runAvg speedWind from/ knotsBaromVisibWave heightAir tempDewpointWater temp
2018-Oct-23 10:07N 31°44' E 031°13'0 0.1
2018-Oct-23 10:01N 31°44' E 031°13'0 0.0
2018-Oct-23 09:55N 31°44' E 031°13'0 0.0
2018-Oct-23 09:28N 31°44' E 031°13'0 0.0
2018-Oct-23 08:43N 31°44' E 031°13'0 0.0
2018-Oct-23 06:57N 31°44' E 031°13'4 3.2
2018-Oct-23 05:37N 31°48' E 031°13'9 5.5
2018-Oct-23 03:57N 31°57' E 031°09'17 6.8
2018-Oct-23 01:29N 31°40' E 031°09'3 0.5
2018-Oct-22 19:25N 31°37' E 031°09'0 0.0
2018-Oct-22 18:53N 31°37' E 031°09'0 0.0
2018-Oct-22 18:30N 31°37' E 031°09'  
Track history (hours):
 
Tides and Currents Weather Stations Pressure Air Temp Water Temp Dewpoint Dewpoint Depression Visibility Wind Speed Wind Dir Waves Ship Positions

See Champion

Last reported at 2018-Oct-23 10:07 UTC. Time now 2019-Jan-19 07:58 UTC.
Position N 31°44' E 031°13'.
Warning: this ship's position is months out of date.

Length 59 m.

Type: Tug. MMSI: 667001651.

Date/timePositionNaut miles runAvg speedWind from/ knotsBaromVisibWave heightAir tempDewpointWater temp
2018-Oct-23 10:07N 31°44' E 031°13'0 0.1
2018-Oct-23 10:01N 31°44' E 031°13'0 0.0
2018-Oct-23 09:55N 31°44' E 031°13'0 0.0
2018-Oct-23 09:28N 31°44' E 031°13'0 0.0
2018-Oct-23 08:43N 31°44' E 031°13'0 0.0
2018-Oct-23 06:57N 31°44' E 031°13'4 3.2
2018-Oct-23 05:37N 31°48' E 031°13'9 5.5
2018-Oct-23 03:57N 31°57' E 031°09'17 6.8
2018-Oct-23 01:29N 31°40' E 031°09'3 0.5
2018-Oct-22 19:25N 31°37' E 031°09'0 0.0
2018-Oct-22 18:53N 31°37' E 031°09'0 0.0
2018-Oct-22 18:30N 31°37' E 031°09'  

Dump ship's entire track history